createdAt,value
2022-09-16T00:00:15.693Z,15.40
2022-09-16T00:02:44.552Z,15.50
2022-09-16T00:05:15.270Z,15.50
2022-09-16T00:07:44.064Z,15.60
2022-09-16T00:10:13.498Z,15.60
2022-09-16T00:12:42.492Z,15.90
2022-09-16T00:15:12.433Z,15.50
2022-09-16T00:17:41.372Z,15.40
2022-09-16T00:20:11.133Z,15.40
2022-09-16T00:22:41.293Z,15.50
2022-09-16T00:25:11.138Z,15.50
2022-09-16T00:27:45.645Z,15.40
2022-09-16T00:30:17.192Z,15.30
2022-09-16T00:32:48.136Z,15.20
2022-09-16T00:35:16.769Z,15.10
2022-09-16T00:37:46.906Z,15.00
2022-09-16T00:40:20.431Z,15.00
2022-09-16T00:42:49.282Z,14.90
2022-09-16T00:45:19.910Z,14.90
2022-09-16T00:47:52.535Z,15.00
2022-09-16T00:50:26.459Z,15.00
2022-09-16T00:53:00.145Z,15.00
2022-09-16T00:55:32.122Z,15.20
2022-09-16T00:58:08.349Z,15.30
2022-09-16T01:00:39.535Z,15.10
2022-09-16T01:03:08.343Z,15.00
2022-09-16T01:05:39.332Z,14.90
2022-09-16T01:08:10.277Z,14.80
2022-09-16T01:10:38.819Z,14.70
2022-09-16T01:13:12.127Z,14.60
2022-09-16T01:15:55.349Z,14.60
2022-09-16T01:18:30.062Z,14.60
2022-09-16T01:21:29.325Z,14.60
2022-09-16T01:24:25.823Z,14.60
2022-09-16T01:27:36.678Z,14.50
2022-09-16T01:30:27.925Z,14.50
2022-09-16T01:33:06.837Z,14.60
2022-09-16T01:35:46.449Z,14.50
2022-09-16T01:38:28.377Z,14.50
2022-09-16T01:41:08.620Z,14.40
2022-09-16T01:43:46.617Z,14.40
2022-09-16T01:46:23.165Z,14.40
2022-09-16T01:49:00.089Z,14.40
2022-09-16T01:51:33.124Z,14.40
2022-09-16T01:54:07.636Z,14.40
2022-09-16T01:56:43.401Z,14.40
2022-09-16T01:59:15.001Z,14.40
2022-09-16T02:01:50.556Z,14.90
2022-09-16T02:04:26.167Z,14.60
2022-09-16T02:06:58.226Z,14.70
2022-09-16T02:09:32.154Z,14.70
2022-09-16T02:12:06.404Z,14.80
2022-09-16T02:14:41.294Z,14.70
2022-09-16T02:17:12.769Z,14.70
2022-09-16T02:19:45.332Z,14.60
2022-09-16T02:22:18.311Z,14.50
2022-09-16T02:24:49.335Z,14.50
2022-09-16T02:27:20.406Z,14.60
2022-09-16T02:29:53.454Z,14.70
2022-09-16T02:32:27.450Z,14.70
2022-09-16T02:34:58.194Z,14.80
2022-09-16T02:37:32.160Z,14.80
2022-09-16T02:40:06.361Z,14.80
2022-09-16T02:42:35.950Z,14.80
2022-09-16T02:45:06.806Z,14.90
2022-09-16T02:47:46.023Z,14.80
2022-09-16T02:50:22.542Z,14.70
2022-09-16T02:52:58.595Z,14.60
2022-09-16T02:55:37.718Z,14.60
2022-09-16T02:58:07.430Z,14.50
2022-09-16T03:00:41.943Z,14.50
2022-09-16T03:03:11.133Z,14.50
2022-09-16T03:06:11.537Z,14.50
2022-09-16T03:08:41.239Z,14.40
2022-09-16T03:11:19.862Z,14.30
2022-09-16T03:13:58.354Z,14.20
2022-09-16T03:16:32.766Z,14.20
2022-09-16T03:19:11.049Z,14.20
2022-09-16T03:21:48.109Z,14.20
2022-09-16T03:24:28.100Z,14.10
2022-09-16T03:27:02.832Z,14.10
2022-09-16T03:29:39.799Z,14.10
2022-09-16T03:32:21.134Z,14.00
2022-09-16T03:34:54.061Z,14.00
2022-09-16T03:37:25.817Z,14.00
2022-09-16T03:39:58.608Z,14.00
2022-09-16T03:42:27.331Z,14.00
2022-09-16T03:44:56.596Z,14.00
2022-09-16T03:47:26.044Z,14.00
2022-09-16T03:49:54.906Z,14.00
2022-09-16T03:52:25.325Z,14.30
2022-09-16T03:54:54.911Z,14.30
2022-09-16T03:57:23.694Z,14.30
2022-09-16T03:59:52.473Z,14.30
2022-09-16T04:02:21.770Z,14.40
2022-09-16T04:04:50.457Z,14.50
2022-09-16T04:07:19.425Z,14.60
2022-09-16T04:09:50.120Z,14.50
2022-09-16T04:12:19.739Z,14.70
2022-09-16T04:14:48.584Z,14.70
2022-09-16T04:17:17.472Z,15.00
2022-09-16T04:19:46.428Z,15.00
2022-09-16T04:22:15.067Z,14.80
2022-09-16T04:24:44.490Z,14.80
2022-09-16T04:27:14.701Z,15.20
2022-09-16T04:29:43.514Z,14.80
2022-09-16T04:32:13.255Z,14.50
2022-09-16T04:34:43.452Z,14.20
2022-09-16T04:37:12.084Z,14.10
2022-09-16T04:39:40.832Z,14.00
2022-09-16T04:42:12.567Z,13.90
2022-09-16T04:44:45.042Z,13.90
2022-09-16T04:47:13.875Z,13.80
2022-09-16T04:49:43.256Z,13.90
2022-09-16T04:52:12.439Z,13.80
2022-09-16T04:54:41.473Z,13.70
2022-09-16T04:57:10.392Z,13.70
2022-09-16T04:59:39.969Z,13.70
2022-09-16T05:02:10.074Z,13.60
2022-09-16T05:04:38.945Z,13.60
2022-09-16T05:07:08.512Z,13.60
2022-09-16T05:09:37.962Z,13.60
2022-09-16T05:12:07.577Z,13.60
2022-09-16T05:14:38.740Z,13.60
2022-09-16T05:17:08.124Z,13.60
2022-09-16T05:19:39.189Z,13.50
2022-09-16T05:22:07.942Z,13.60
2022-09-16T05:24:37.877Z,13.50
2022-09-16T05:27:09.225Z,13.70
2022-09-16T05:29:37.777Z,14.10
2022-09-16T05:32:06.658Z,14.60
2022-09-16T05:34:37.233Z,14.80
2022-09-16T05:37:08.055Z,15.60
2022-09-16T05:39:36.818Z,16.50
2022-09-16T05:42:05.946Z,15.50
2022-09-16T05:44:35.038Z,15.60
2022-09-16T05:47:05.295Z,15.10
2022-09-16T05:49:34.228Z,15.10
2022-09-16T05:52:03.690Z,15.00
2022-09-16T05:54:34.484Z,15.10
2022-09-16T05:57:07.189Z,14.70
2022-09-16T05:59:42.111Z,14.80
2022-09-16T06:05:10.597Z,14.40
2022-09-16T06:07:46.750Z,14.30
2022-09-16T06:10:19.753Z,14.20
2022-09-16T06:12:51.373Z,14.30
2022-09-16T06:15:29.261Z,14.20
2022-09-16T06:21:13.675Z,14.30
2022-09-16T06:23:42.778Z,14.40
2022-09-16T06:26:16.205Z,14.40
2022-09-16T06:28:47.020Z,14.30
2022-09-16T06:31:18.577Z,14.30
2022-09-16T06:33:55.392Z,14.30
2022-09-16T06:36:26.200Z,14.30
2022-09-16T06:38:55.044Z,14.40
2022-09-16T06:41:36.232Z,14.50
2022-09-16T06:44:05.093Z,14.50
2022-09-16T06:46:39.094Z,14.70
2022-09-16T06:49:08.271Z,14.60
2022-09-16T06:51:37.510Z,15.10
2022-09-16T06:54:08.671Z,15.30
2022-09-16T06:56:41.695Z,15.40
2022-09-16T06:59:14.636Z,15.40
2022-09-16T07:01:43.829Z,15.50
2022-09-16T07:04:13.738Z,15.60
2022-09-16T07:07:08.708Z,15.60
2022-09-16T07:12:29.152Z,15.60
2022-09-16T07:15:00.897Z,15.60
2022-09-16T07:17:33.718Z,16.00
2022-09-16T07:20:15.186Z,16.90
2022-09-16T07:22:51.728Z,18.10
2022-09-16T07:28:30.301Z,19.30
2022-09-16T07:33:53.424Z,20.20
2022-09-16T07:36:25.714Z,21.70
2022-09-16T07:39:06.240Z,22.70
2022-09-16T07:41:39.672Z,22.90
2022-09-16T07:44:27.006Z,23.20
2022-09-16T07:46:56.833Z,24.10
2022-09-16T07:49:32.131Z,23.30
2022-09-16T07:52:07.803Z,23.30
2022-09-16T07:54:43.646Z,23.70
2022-09-16T07:57:13.027Z,23.60
2022-09-16T07:59:44.971Z,23.40
2022-09-16T08:02:15.636Z,22.60
2022-09-16T08:04:51.861Z,22.70
2022-09-16T08:07:23.356Z,22.90
2022-09-16T08:09:53.711Z,22.90
2022-09-16T08:12:35.127Z,23.50
2022-09-16T08:15:21.977Z,24.60
2022-09-16T08:17:53.484Z,25.10
2022-09-16T08:20:28.047Z,24.40
2022-09-16T08:22:58.038Z,23.20
2022-09-16T08:25:42.236Z,23.50
2022-09-16T08:28:15.163Z,23.20
2022-09-16T08:30:53.367Z,22.20
2022-09-16T08:33:27.359Z,21.10
2022-09-16T08:36:08.695Z,20.50
2022-09-16T08:38:51.764Z,21.10
2022-09-16T08:41:35.181Z,20.80
2022-09-16T08:44:22.393Z,20.20
2022-09-16T08:47:00.775Z,19.60
2022-09-16T08:49:52.355Z,19.20
2022-09-16T08:52:37.741Z,18.90
2022-09-16T08:55:13.900Z,19.00
2022-09-16T09:01:00.595Z,18.50
2022-09-16T09:03:53.720Z,18.50
2022-09-16T09:06:38.169Z,18.50
2022-09-16T09:09:20.167Z,18.60
2022-09-16T09:11:54.533Z,19.10
2022-09-16T09:14:37.619Z,19.20
2022-09-16T09:17:15.004Z,19.20
2022-09-16T09:20:01.258Z,19.10
2022-09-16T09:22:47.012Z,19.30
2022-09-16T09:25:30.461Z,19.30
2022-09-16T09:28:14.586Z,19.10
2022-09-16T09:30:57.088Z,19.00
2022-09-16T09:34:04.824Z,18.90
2022-09-16T09:39:47.032Z,18.70
2022-09-16T09:42:26.763Z,18.50
2022-09-16T09:45:15.843Z,18.50
2022-09-16T09:48:03.833Z,18.30
2022-09-16T09:50:47.686Z,18.50
2022-09-16T09:53:26.362Z,18.50
2022-09-16T09:56:03.054Z,18.50
2022-09-16T09:58:37.574Z,18.50
2022-09-16T10:01:06.980Z,18.90
2022-09-16T10:03:38.231Z,20.00
2022-09-16T10:06:12.075Z,20.80
2022-09-16T10:08:48.152Z,21.70
2022-09-16T10:11:20.503Z,21.50
2022-09-16T10:13:55.783Z,21.10
2022-09-16T10:16:29.530Z,20.40
2022-09-16T10:19:03.272Z,19.90
2022-09-16T10:21:43.949Z,19.50
2022-09-16T10:24:36.898Z,19.00
2022-09-16T10:27:51.607Z,18.90
2022-09-16T10:30:24.953Z,19.10
2022-09-16T10:33:01.840Z,19.20
2022-09-16T10:35:37.480Z,19.10
2022-09-16T10:38:34.113Z,19.10
2022-09-16T10:41:09.431Z,19.80
2022-09-16T10:43:45.226Z,20.50
2022-09-16T10:46:19.337Z,20.90
2022-09-16T10:48:55.481Z,21.40
2022-09-16T10:54:32.529Z,21.50
2022-09-16T11:00:23.228Z,20.80
2022-09-16T11:06:34.237Z,20.20
2022-09-16T11:09:13.304Z,19.80
2022-09-16T11:15:29.289Z,19.10
2022-09-16T11:18:28.113Z,17.80
2022-09-16T11:21:23.082Z,16.90
2022-09-16T11:24:11.455Z,16.80
2022-09-16T11:26:50.979Z,16.40
2022-09-16T11:29:55.304Z,16.40
2022-09-16T11:33:02.247Z,16.40
2022-09-16T11:45:49.501Z,17.60
2022-09-16T11:48:49.335Z,17.90
2022-09-16T11:51:50.195Z,18.40
2022-09-16T11:54:45.468Z,18.60
2022-09-16T11:57:32.742Z,18.50
2022-09-16T12:00:19.152Z,18.50
2022-09-16T12:03:20.815Z,18.70
2022-09-16T12:12:40.446Z,19.80
2022-09-16T12:15:20.483Z,20.00
2022-09-16T12:18:09.851Z,20.10
2022-09-16T12:20:49.944Z,20.00
2022-09-16T12:23:45.952Z,19.70
2022-09-16T12:26:55.560Z,19.50
2022-09-16T12:29:33.738Z,19.40
2022-09-16T12:32:07.230Z,19.20
2022-09-16T12:34:40.334Z,19.50
2022-09-16T12:37:17.346Z,19.60
2022-09-16T12:39:46.531Z,19.50
2022-09-16T12:42:47.503Z,19.00
2022-09-16T12:45:43.918Z,19.80
2022-09-16T12:49:02.197Z,19.90
2022-09-16T12:51:50.829Z,19.80
2022-09-16T12:55:04.055Z,19.50
2022-09-16T12:57:48.274Z,19.40
2022-09-16T13:00:22.517Z,19.60
2022-09-16T13:02:56.570Z,19.40
2022-09-16T13:05:33.053Z,19.60
2022-09-16T13:08:06.207Z,19.30
2022-09-16T13:10:55.013Z,19.30
2022-09-16T13:13:34.173Z,18.90
2022-09-16T13:16:05.880Z,18.70
2022-09-16T13:18:44.229Z,18.60
2022-09-16T13:21:27.704Z,18.00
2022-09-16T13:24:05.952Z,17.50
2022-09-16T13:26:43.135Z,17.20
2022-09-16T13:29:44.529Z,16.90
2022-09-16T13:32:30.512Z,16.80
2022-09-16T13:35:07.869Z,16.50
2022-09-16T13:37:38.621Z,16.70
2022-09-16T13:40:27.117Z,17.00
2022-09-16T13:43:16.294Z,17.10
2022-09-16T13:45:49.831Z,17.10
2022-09-16T13:48:22.213Z,17.50
2022-09-16T13:50:55.077Z,17.70
2022-09-16T13:53:31.033Z,17.70
2022-09-16T13:56:16.612Z,17.70
2022-09-16T13:59:25.688Z,17.60
2022-09-16T14:02:16.509Z,17.50
2022-09-16T14:05:22.177Z,17.60
2022-09-16T14:08:01.191Z,17.30
2022-09-16T14:10:48.855Z,17.30
2022-09-16T14:13:29.186Z,17.20
2022-09-16T14:16:12.525Z,16.60
2022-09-16T14:19:05.808Z,17.30
2022-09-16T14:21:53.181Z,17.20
2022-09-16T14:25:00.732Z,17.30
2022-09-16T14:30:29.005Z,17.00
2022-09-16T14:33:17.911Z,17.00
2022-09-16T14:35:55.034Z,16.90
2022-09-16T14:38:46.847Z,17.00
2022-09-16T14:41:28.373Z,16.90
2022-09-16T14:44:01.746Z,16.90
2022-09-16T14:46:31.819Z,16.90
2022-09-16T14:49:06.143Z,16.90
2022-09-16T14:51:37.427Z,16.80
2022-09-16T14:54:12.676Z,16.80
2022-09-16T14:56:49.442Z,16.80
2022-09-16T14:59:22.940Z,16.70
2022-09-16T15:02:10.518Z,16.80
2022-09-16T15:04:51.682Z,16.80
2022-09-16T15:07:29.592Z,16.80
2022-09-16T15:10:03.461Z,16.90
2022-09-16T15:12:34.994Z,16.80
2022-09-16T15:15:07.665Z,16.70
2022-09-16T15:17:37.057Z,16.60
2022-09-16T15:20:07.187Z,16.60
2022-09-16T15:22:42.449Z,16.60
2022-09-16T15:25:22.537Z,16.60
2022-09-16T15:27:51.958Z,16.60
2022-09-16T15:30:25.995Z,16.50
2022-09-16T15:32:55.529Z,16.50
2022-09-16T15:35:27.098Z,16.50
2022-09-16T15:37:59.668Z,16.50
2022-09-16T15:40:37.002Z,16.40
2022-09-16T15:43:15.326Z,16.40
2022-09-16T15:45:47.029Z,16.40
2022-09-16T15:48:19.220Z,16.30
2022-09-16T15:50:50.995Z,16.40
2022-09-16T15:53:35.417Z,16.40
2022-09-16T15:56:09.240Z,16.20
2022-09-16T15:58:42.229Z,16.00
2022-09-16T16:01:19.889Z,16.00
2022-09-16T16:03:55.011Z,16.10
2022-09-16T16:06:51.883Z,16.20
2022-09-16T16:09:44.811Z,16.30
2022-09-16T16:12:19.050Z,16.20
2022-09-16T16:14:48.195Z,16.80
2022-09-16T16:17:21.230Z,16.50
2022-09-16T16:19:52.189Z,16.30
2022-09-16T16:22:22.016Z,16.20
2022-09-16T16:24:54.918Z,16.20
2022-09-16T16:27:24.152Z,16.20
2022-09-16T16:29:58.402Z,15.90
2022-09-16T16:32:27.530Z,16.00
2022-09-16T16:34:58.594Z,16.20
2022-09-16T16:37:47.439Z,16.30
2022-09-16T16:40:19.460Z,16.20
2022-09-16T16:42:49.400Z,16.00
2022-09-16T16:45:18.420Z,15.70
2022-09-16T16:47:51.034Z,15.80
2022-09-16T16:50:20.009Z,15.60
2022-09-16T16:53:20.890Z,15.60
2022-09-16T16:55:59.346Z,15.60
2022-09-16T16:58:32.028Z,15.80
2022-09-16T17:01:13.107Z,15.60
2022-09-16T17:03:43.567Z,15.50
2022-09-16T17:06:14.893Z,15.50
2022-09-16T17:08:45.340Z,15.50
2022-09-16T17:11:21.356Z,15.30
2022-09-16T17:13:53.310Z,15.30
2022-09-16T17:16:25.397Z,15.50
2022-09-16T17:18:55.813Z,15.40
2022-09-16T17:21:26.968Z,15.00
2022-09-16T17:23:56.264Z,14.60
2022-09-16T17:26:28.726Z,14.90
2022-09-16T17:32:09.383Z,14.80
2022-09-16T17:34:39.130Z,14.70
2022-09-16T17:37:09.233Z,14.70
2022-09-16T17:39:38.865Z,14.70
2022-09-16T17:42:09.619Z,14.50
2022-09-16T17:44:40.347Z,14.60
2022-09-16T17:47:11.166Z,14.60
2022-09-16T17:49:40.498Z,14.50
2022-09-16T17:52:09.809Z,14.50
2022-09-16T17:54:41.349Z,14.50
2022-09-16T17:57:15.399Z,14.50
2022-09-16T17:59:47.680Z,14.50
2022-09-16T18:02:17.174Z,14.50
2022-09-16T18:04:49.533Z,14.40
2022-09-16T18:07:21.393Z,14.40
2022-09-16T18:09:50.452Z,14.10
2022-09-16T18:12:20.755Z,14.40
2022-09-16T18:14:49.786Z,14.40
2022-09-16T18:17:19.374Z,14.40
2022-09-16T18:19:48.498Z,14.40
2022-09-16T18:22:17.626Z,14.30
2022-09-16T18:24:47.087Z,14.30
2022-09-16T18:27:16.476Z,14.20
2022-09-16T18:29:49.971Z,14.20
2022-09-16T18:32:19.366Z,14.10
2022-09-16T18:34:48.648Z,14.10
2022-09-16T18:37:18.126Z,14.00
2022-09-16T18:39:47.774Z,13.90
2022-09-16T18:42:16.861Z,13.90
2022-09-16T18:44:50.104Z,13.90
2022-09-16T18:47:20.043Z,13.90
2022-09-16T18:49:50.471Z,14.10
2022-09-16T18:52:22.853Z,13.70
2022-09-16T18:54:52.671Z,14.50
2022-09-16T18:57:23.996Z,15.30
2022-09-16T18:59:54.411Z,14.80
2022-09-16T19:02:26.970Z,14.30
2022-09-16T19:04:59.386Z,14.00
2022-09-16T19:07:29.373Z,13.80
2022-09-16T19:10:03.474Z,13.80
2022-09-16T19:12:37.088Z,13.60
2022-09-16T19:15:13.396Z,13.50
2022-09-16T19:17:44.353Z,13.40
2022-09-16T19:20:14.035Z,13.40
2022-09-16T19:22:46.717Z,13.40
2022-09-16T19:25:15.667Z,13.40
2022-09-16T19:27:44.584Z,13.30
2022-09-16T19:30:15.472Z,13.30
2022-09-16T19:32:45.871Z,13.30
2022-09-16T19:35:15.976Z,13.30
2022-09-16T19:37:45.707Z,13.40
2022-09-16T19:40:15.861Z,13.30
2022-09-16T19:42:56.812Z,13.20
2022-09-16T19:45:30.689Z,13.20
2022-09-16T19:48:00.651Z,13.20
2022-09-16T19:50:29.956Z,13.20
2022-09-16T19:52:59.172Z,13.20
2022-09-16T19:55:29.017Z,13.20
2022-09-16T19:58:00.375Z,12.90
2022-09-16T20:00:52.865Z,12.80
2022-09-16T20:03:26.274Z,13.10
2022-09-16T20:06:07.668Z,13.00
2022-09-16T20:08:42.962Z,13.10
2022-09-16T20:11:14.549Z,13.00
2022-09-16T20:13:43.672Z,13.00
2022-09-16T20:16:32.761Z,13.00
2022-09-16T20:19:02.363Z,13.00
2022-09-16T20:21:33.363Z,13.00
2022-09-16T20:24:03.296Z,13.30
2022-09-16T20:26:49.685Z,14.20
2022-09-16T20:29:19.644Z,14.50
2022-09-16T20:31:55.366Z,14.40
2022-09-16T20:34:38.147Z,14.80
2022-09-16T20:37:08.405Z,14.10
2022-09-16T20:39:38.495Z,14.00
2022-09-16T20:42:08.451Z,13.40
2022-09-16T20:44:48.982Z,13.20
2022-09-16T20:47:25.277Z,13.10
2022-09-16T20:49:54.191Z,12.90
2022-09-16T20:52:23.067Z,12.90
2022-09-16T20:54:54.294Z,12.90
2022-09-16T20:57:27.963Z,12.90
2022-09-16T20:59:57.316Z,12.90
2022-09-16T21:02:29.773Z,12.90
2022-09-16T21:05:05.260Z,12.60
2022-09-16T21:07:39.813Z,12.90
2022-09-16T21:10:10.701Z,12.90
2022-09-16T21:12:42.547Z,12.80
2022-09-16T21:15:26.351Z,12.80
2022-09-16T21:18:42.859Z,12.80
2022-09-16T21:21:46.850Z,12.80
2022-09-16T21:24:24.600Z,12.90
2022-09-16T21:26:57.284Z,12.90
2022-09-16T21:29:35.919Z,12.80
2022-09-16T21:32:23.839Z,13.00
2022-09-16T21:35:05.920Z,12.80
2022-09-16T21:37:39.706Z,13.00
2022-09-16T21:40:18.937Z,13.00
2022-09-16T21:42:49.598Z,12.90
2022-09-16T21:45:26.163Z,12.90
2022-09-16T21:48:01.117Z,12.60
2022-09-16T21:50:32.107Z,12.80
2022-09-16T21:53:03.780Z,12.80
2022-09-16T21:55:33.772Z,12.90
2022-09-16T21:58:04.559Z,12.80
2022-09-16T22:00:34.438Z,12.90
2022-09-16T22:03:04.362Z,12.90
2022-09-16T22:05:39.978Z,12.90
2022-09-16T22:08:15.064Z,12.70
2022-09-16T22:10:49.223Z,12.90
2022-09-16T22:13:19.675Z,12.90
2022-09-16T22:15:53.194Z,12.80
2022-09-16T22:18:23.537Z,12.80
2022-09-16T22:20:53.571Z,12.80
2022-09-16T22:23:27.043Z,12.80
2022-09-16T22:25:56.277Z,12.80
2022-09-16T22:28:26.054Z,12.70
2022-09-16T22:30:55.276Z,12.70
2022-09-16T22:33:25.771Z,12.70
2022-09-16T22:35:55.586Z,12.80
2022-09-16T22:38:26.328Z,12.80
2022-09-16T22:41:00.156Z,12.80
2022-09-16T22:43:29.546Z,12.60
2022-09-16T22:46:06.713Z,12.70
2022-09-16T22:48:37.198Z,12.70
2022-09-16T22:51:06.936Z,12.70
2022-09-16T22:53:37.706Z,12.70
2022-09-16T22:56:09.269Z,12.60
2022-09-16T22:58:38.572Z,12.60
2022-09-16T23:01:11.317Z,12.60
2022-09-16T23:03:42.263Z,12.50
2022-09-16T23:06:13.726Z,12.40
2022-09-16T23:08:49.274Z,12.40
2022-09-16T23:11:20.353Z,12.40
2022-09-16T23:13:50.786Z,12.40
2022-09-16T23:16:22.212Z,12.30
2022-09-16T23:18:54.697Z,12.30
2022-09-16T23:21:27.339Z,12.30
2022-09-16T23:24:00.751Z,12.30
2022-09-16T23:26:32.791Z,12.30
2022-09-16T23:29:04.763Z,12.30
2022-09-16T23:31:36.260Z,12.30
2022-09-16T23:34:08.643Z,12.20
2022-09-16T23:36:42.357Z,12.20
2022-09-16T23:39:17.033Z,12.10
2022-09-16T23:41:54.800Z,12.20
2022-09-16T23:44:26.281Z,12.20
2022-09-16T23:46:55.469Z,12.20
2022-09-16T23:49:26.038Z,12.20
2022-09-16T23:51:55.441Z,12.20
2022-09-16T23:54:29.525Z,12.20
2022-09-16T23:57:11.181Z,12.20
2022-09-16T23:59:45.797Z,12.10
